Accueil
METAR-TAF:

METAR-TAF

Aéroports :

Aéroport international de Yap

Yap, Micronésie

latitude: 09-29N, longitude: 138-05E, altitude: 28 m

Observation

Le bulletin a été fait il y a 19 minutes, à 03:50 UTC
Vent 10 kt de est/sud-est
Température 32°C
Humidité 71%
Pression 1009 hPa
Visibilité: 19.3 km
Quelques nuages à une hauteur de 1700 ft
Nuages fragmentés à une hauteur de 30000 ft

METAR: PTYA 250350Z 12010KT 12SM FEW017 BKN300 32/26 A2980 RMK SLP093 T03170258

Heure: 14:09 (04:09 UTC)

Prévision

Le bulletin a été fait il y a 4 heures et 32 minutes, à 23:37 UTC
Prévision valable du 25 à 00 UTC au 25 à 24 UTC
Vent 10 kt de est
Visibilité: 10 km
Quelques nuages à une hauteur de 1700 ft
Nuages épars à une hauteur de 4000 ft
averses à proximité

TAF: PTYA 242337Z 2500/2524 09010KT P6SM VCSH FEW017 SCT040

Observations et prévisions météorologiques de plus de 4000 aéroports (messages METAR et TAF).

Les stations disponibles sont représentées par des disques jaunes et rouges sur la carte.

Passer la souris dessus pour voir le nom de la station.

Cliquer dessus pour voir les observations et prévisions météorologiques.

Pour changer de carte: cliquez sur les boutons verts avec une croix noire pour zoomer, sur le bouton vert avec un tiret pour effectuer un zoom arrière, ou sur les flèches vertes pour les cartes adjacentes.


METAR-TAF: